Don Carlos — 9V9243 — position and weather

sailwx.info

Track history (hours):
 
Tides and Currents Weather Stations Pressure Air Temp Water Temp Dewpoint Dewpoint Depression Visibility Wind Speed Wind Dir Waves Ship Positions

Don Carlos

Last reported at 2018-Apr-20 18:07 UTC. Time now 2018-Apr-22 08:47 UTC.
Position N 50°43' W 011°42'.

Length 228 m; draft 9.5 m.

Type: Cargo ship. MMSI: 566088000.

Date/timePositionNaut miles runAvg speedWind from/ knotsBaromVisibWave heightAir tempDewpointWater temp
2018-Apr-20 18:07N 50°43' W 011°42'216.8
2018-Apr-20 17:58N 50°44' W 011°38'816.8
2018-Apr-20 17:30N 50°46' W 011°26'1016.6
2018-Apr-20 16:54N 50°48' W 011°11'816.4
2018-Apr-20 16:26N 50°50' W 010°59'716.5
2018-Apr-20 15:59N 50°52' W 010°48'816.7
2018-Apr-20 15:30N 50°54' W 010°35'816.7
2018-Apr-20 15:00N 50°56' W 010°22'1213.2
2018-Apr-20 14:06N 50°58' W 010°04'2 6.6
2018-Apr-20 13:51N 50°59' W 010°01'6 9.5
2018-Apr-20 13:15N 50°60' W 009°52'517.2
2018-Apr-20 12:59N 51°01' W 009°45'817.3
2018-Apr-20 12:30N 51°04' W 009°33'917.5
2018-Apr-20 12:00N 51°06' W 009°20'917.4
2018-Apr-20 11:30N 51°08' W 009°06'917.5
2018-Apr-20 11:00N 51°10' W 008°53'917.2
2018-Apr-20 10:30N 51°12' W 008°39'917.2
2018-Apr-20 10:00N 51°15' W 008°26'816.8
2018-Apr-20 09:30N 51°16' W 008°13'816.6
2018-Apr-20 09:00N 51°16' W 007°60'714.8
2018-Apr-20 08:30N 51°16' W 007°48'714.7
2018-Apr-20 08:00N 51°17' W 007°36'714.6
2018-Apr-20 07:30N 51°17' W 007°24'714.5
2018-Apr-20 07:00N 51°18' W 007°13'714.4
2018-Apr-20 06:30N 51°18' W 007°01'714.3
2018-Apr-20 06:00N 51°17' W 006°50'714.5
2018-Apr-20 05:30N 51°17' W 006°38'714.7
2018-Apr-20 05:00N 51°17' W 006°27'714.8
2018-Apr-20 04:30N 51°17' W 006°15'714.9
2018-Apr-20 04:00N 51°18' W 006°03'714.8
2018-Apr-20 03:30N 51°18' W 005°51'714.9
2018-Apr-20 03:00N 51°18' W 005°39'815.1
2018-Apr-20 02:30N 51°18' W 005°27'715.3
2018-Apr-20 02:00N 51°18' W 005°15'815.8
2018-Apr-20 01:30N 51°18' W 005°02'816.6
2018-Apr-20 01:00N 51°19' W 004°49'916.9
2018-Apr-20 00:30N 51°19' W 004°35'917.9
2018-Apr-20 00:00N 51°20' W 004°21'918.6
2018-Apr-19 23:30N 51°20' W 004°06'918.8
2018-Apr-19 23:00N 51°20' W 003°51'918.7
2018-Apr-19 22:30N 51°20' W 003°36'917.7
2018-Apr-19 22:00N 51°21' W 003°22'611.3
2018-Apr-19 21:30N 51°21' W 003°13'611.2
2018-Apr-19 21:01N 51°23' W 003°05'713.7
2018-Apr-19 20:30N 51°28' W 002°56'713.1
2018-Apr-19 20:00N 51°30' W 002°46'2 3.6
2018-Apr-19 19:30N 51°30' W 002°44'0 0.4
2018-Apr-19 19:00N 51°30' W 002°43'0 0.6
2018-Apr-19 18:30N 51°30' W 002°43'0 0.0
2018-Apr-19 18:00N 51°30' W 002°43'0 0.0
2018-Apr-19 17:30N 51°30' W 002°43'0 0.0
2018-Apr-19 16:58N 51°30' W 002°43'0 0.0
2018-Apr-19 16:28N 51°30' W 002°43'0 0.0
2018-Apr-19 15:58N 51°30' W 002°43'0 0.0
2018-Apr-19 15:28N 51°30' W 002°43'0 0.0
2018-Apr-19 14:58N 51°30' W 002°43'0 0.0
2018-Apr-19 14:28N 51°30' W 002°43'0 0.0
2018-Apr-19 13:58N 51°30' W 002°43'0 0.0
2018-Apr-19 13:28N 51°30' W 002°43'0 0.0
2018-Apr-19 12:55N 51°30' W 002°43'0 0.0
2018-Apr-19 12:28N 51°30' W 002°43'0 0.0
2018-Apr-19 11:58N 51°30' W 002°43'0 0.0
2018-Apr-19 11:28N 51°30' W 002°43'0 0.0
2018-Apr-19 10:58N 51°30' W 002°43'0 0.0
2018-Apr-19 10:28N 51°30' W 002°43'0 0.0
2018-Apr-19 09:58N 51°30' W 002°43'0 0.0
2018-Apr-19 09:25N 51°30' W 002°43'0 0.0
2018-Apr-19 08:58N 51°30' W 002°43'0 0.0
2018-Apr-19 08:28N 51°30' W 002°43'0 0.0
2018-Apr-19 07:58N 51°30' W 002°43'0 0.0
2018-Apr-19 07:28N 51°30' W 002°43'0 0.0
2018-Apr-19 06:58N 51°30' W 002°43'0 0.0
2018-Apr-19 06:28N 51°30' W 002°43'0 0.0
2018-Apr-19 05:58N 51°30' W 002°43'0 0.0
2018-Apr-19 05:28N 51°30' W 002°43'0 0.0
2018-Apr-19 04:58N 51°30' W 002°43'0 0.0
2018-Apr-19 04:28N 51°30' W 002°43'0 0.0
2018-Apr-19 03:58N 51°30' W 002°43'0 0.0
2018-Apr-19 03:28N 51°30' W 002°43'0 0.0
2018-Apr-19 02:58N 51°30' W 002°43'0 0.0
2018-Apr-19 02:28N 51°30' W 002°43'0 0.0
2018-Apr-19 01:58N 51°30' W 002°43'0 0.0
2018-Apr-19 01:28N 51°30' W 002°43'0 0.0
2018-Apr-19 00:55N 51°30' W 002°43'0 0.0
2018-Apr-19 00:28N 51°30' W 002°43'0 0.0
2018-Apr-18 23:58N 51°30' W 002°43'0 0.0
2018-Apr-18 23:28N 51°30' W 002°43'0 0.0
2018-Apr-18 22:58N 51°30' W 002°43'0 0.0
2018-Apr-18 22:30N 51°30' W 002°43'0 0.8
2018-Apr-18 22:00N 51°30' W 002°43'0 0.9
2018-Apr-18 21:30N 51°30' W 002°44'4 7.6
2018-Apr-18 21:00N 51°29' W 002°50'815.2
2018-Apr-18 20:30N 51°26' W 003°01'916.4
2018-Apr-18 19:58N 51°21' W 003°13'3614.5
2018-Apr-18 17:30N 51°16' W 004°10'918.1
2018-Apr-18 16:59N 51°12' W 004°23'917.7
2018-Apr-18 16:30N 51°07' W 004°34'917.4
2018-Apr-18 16:00N 51°01' W 004°44'816.6
2018-Apr-18 15:30N 50°55' W 004°54'917.3
2018-Apr-18 15:00N 50°49' W 005°03'917.4
2018-Apr-18 14:30N 50°43' W 005°14'917.0
2018-Apr-18 14:00N 50°38' W 005°23'816.7
2018-Apr-18 13:30N 50°32' W 005°33'816.1
2018-Apr-18 13:00N 50°27' W 005°43'815.9
2018-Apr-18 12:30N 50°21' W 005°52'815.7
2018-Apr-18 12:00N 50°14' W 005°55'1216.1
2018-Apr-18 11:17N 50°02' W 005°55'4713.9
2018-Apr-18 07:57N 49°50' W 004°45'713.4
2018-Apr-18 07:25N 49°52' W 004°35'613.6
2018-Apr-18 07:00N 49°54' W 004°27'813.0
2018-Apr-18 06:26N 49°57' W 004°16'613.6
2018-Apr-18 06:00N 49°59' W 004°07'713.9
2018-Apr-18 05:30N 50°00' W 003°57'714.4
2018-Apr-18 05:00N 50°03' W 003°46'815.2
2018-Apr-18 04:30N 50°06' W 003°35'816.6
2018-Apr-18 04:00N 50°08' W 003°23'917.1
2018-Apr-18 03:30N 50°11' W 003°10'917.9
2018-Apr-18 03:00N 50°13' W 002°57'918.4
2018-Apr-18 02:30N 50°16' W 002°43'918.5
2018-Apr-18 02:00N 50°18' W 002°29'1018.4
2018-Apr-18 01:27N 50°20' W 002°13'817.9
2018-Apr-18 01:00N 50°21' W 002°01'917.1
2018-Apr-18 00:30N 50°22' W 001°47'816.1
2018-Apr-18 00:00N 50°24' W 001°35'815.2
2018-Apr-17 23:31N 50°25' W 001°24'713.8
2018-Apr-17 23:00N 50°27' W 001°13'612.5
2018-Apr-17 22:30N 50°30' W 001°04'612.1
2018-Apr-17 22:00N 50°35' W 000°60'612.5
2018-Apr-17 21:30N 50°42' W 000°58'611.3
2018-Apr-17 21:00N 50°44' W 001°05'816.2
2018-Apr-17 20:30N 50°47' W 001°18'4 8.7
2018-Apr-17 20:00N 50°51' W 001°20'3 6.5
2018-Apr-17 19:30N 50°53' W 001°24'0 0.0
2018-Apr-17 19:00N 50°53' W 001°24'0 0.0
2018-Apr-17 18:29N 50°53' W 001°24'0 0.0
2018-Apr-17 17:59N 50°53' W 001°24'0 0.0
2018-Apr-17 17:28N 50°53' W 001°24'0 0.0
2018-Apr-17 16:58N 50°53' W 001°24'0 0.0
2018-Apr-17 16:28N 50°53' W 001°24'0 0.0
2018-Apr-17 15:58N 50°53' W 001°24'0 0.0
2018-Apr-17 15:28N 50°53' W 001°24'0 0.0
2018-Apr-17 14:58N 50°53' W 001°24'0 0.0
2018-Apr-17 14:28N 50°53' W 001°24'0 0.0
2018-Apr-17 13:58N 50°53' W 001°24'0 0.0
2018-Apr-17 13:28N 50°53' W 001°24'0 0.0
2018-Apr-17 12:58N 50°53' W 001°24'0 0.0
2018-Apr-17 12:28N 50°53' W 001°24'0 0.0
2018-Apr-17 11:58N 50°53' W 001°24'0 0.0
2018-Apr-17 11:28N 50°53' W 001°24'0 0.0
2018-Apr-17 10:58N 50°53' W 001°24'0 0.0
2018-Apr-17 10:28N 50°53' W 001°24'0 0.0
2018-Apr-17 09:58N 50°53' W 001°24'0 0.0
2018-Apr-17 09:28N 50°53' W 001°24'0 0.0
2018-Apr-17 09:00N 50°53' W 001°24'1 1.2
2018-Apr-17 08:30N 50°53' W 001°23'4 8.7
2018-Apr-17 08:00N 50°49' W 001°18'4 8.1
2018-Apr-17 07:30N 50°46' W 001°15'713.7
2018-Apr-17 07:01N 50°44' W 001°04'612.7
2018-Apr-17 06:30N 50°41' W 000°56'5 9.4
2018-Apr-17 06:00N 50°38' W 000°50'510.5
2018-Apr-17 05:30N 50°36' W 000°43'611.1
2018-Apr-17 05:00N 50°35' W 000°34'612.1
2018-Apr-17 04:31N 50°34' W 000°25'714.2
2018-Apr-17 04:00N 50°33' W 000°14'816.8
2018-Apr-17 03:30N 50°32' W 000°01'917.5
2018-Apr-17 03:00N 50°34' E 000°13'917.6
2018-Apr-17 02:30N 50°36' E 000°26'816.9
2018-Apr-17 02:00N 50°39' E 000°39'816.5
2018-Apr-17 01:30N 50°43' E 000°50'815.9
2018-Apr-17 01:00N 50°48' E 001°00'815.4
2018-Apr-17 00:30N 50°53' E 001°09'815.0
2018-Apr-17 00:00N 50°59' E 001°17'714.6
2018-Apr-16 23:30N 51°04' E 001°25'714.7
2018-Apr-16 23:01N 51°08' E 001°35'815.0
2018-Apr-16 22:30N 51°13' E 001°44'816.1
2018-Apr-16 22:00N 51°19' E 001°52'815.8
2018-Apr-16 21:31N 51°25' E 002°01'815.7
2018-Apr-16 21:00N 51°22' E 002°13'816.0
2018-Apr-16 20:30N 51°22' E 002°26'714.9
2018-Apr-16 20:00N 51°22' E 002°38'713.0
2018-Apr-16 19:30N 51°22' E 002°48'816.9
2018-Apr-16 19:00N 51°24' E 003°01'714.7
2018-Apr-16 18:30N 51°21' E 003°12'1 2.9
2018-Apr-16 18:00N 51°20' E 003°13'0 0.0
2018-Apr-16 17:30N 51°20' E 003°13'1 1.2
2018-Apr-16 17:00N 51°19' E 003°13'1 1.4
2018-Apr-16 16:30N 51°19' E 003°14'0 0.0
2018-Apr-16 16:00N 51°19' E 003°14'0 0.0
2018-Apr-16 15:30N 51°19' E 003°14'0 0.0
2018-Apr-16 15:00N 51°19' E 003°14'0 0.0
2018-Apr-16 14:30N 51°19' E 003°14'0 0.0
2018-Apr-16 14:00N 51°19' E 003°14'0 0.0
2018-Apr-16 13:30N 51°19' E 003°14'0 0.0
2018-Apr-16 13:00N 51°19' E 003°14'0 0.0
2018-Apr-16 12:29N 51°19' E 003°14'0 0.0
2018-Apr-16 11:59N 51°19' E 003°14'0 0.0
2018-Apr-16 11:29N 51°19' E 003°14'0 0.0
2018-Apr-16 10:59N 51°19' E 003°14'0 0.0
2018-Apr-16 10:29N 51°19' E 003°14'0 0.0
2018-Apr-16 09:59N 51°19' E 003°14'0 0.0
2018-Apr-16 09:29N 51°19' E 003°14'0 0.0
2018-Apr-16 08:59N 51°19' E 003°14'0 0.0
2018-Apr-16 08:29N 51°19' E 003°14'0 0.0
2018-Apr-16 07:59N 51°19' E 003°14'0 0.0
2018-Apr-16 07:29N 51°19' E 003°14'0 0.0
2018-Apr-16 06:59N 51°19' E 003°14'0 0.0
2018-Apr-16 06:29N 51°19' E 003°14'0 0.0
2018-Apr-16 05:59N 51°19' E 003°14'0 0.0
2018-Apr-16 05:29N 51°19' E 003°14'0 0.0
2018-Apr-16 04:59N 51°19' E 003°14'0 0.0
2018-Apr-16 04:29N 51°19' E 003°14'0 0.0
2018-Apr-16 03:59N 51°19' E 003°14'0 0.0
2018-Apr-16 03:29N 51°19' E 003°14'0 0.0
2018-Apr-16 02:59N 51°19' E 003°14'0 0.0
2018-Apr-16 02:29N 51°19' E 003°14'0 0.0
2018-Apr-16 01:59N 51°19' E 003°14'0 0.0
2018-Apr-16 01:29N 51°19' E 003°14'0 0.0
2018-Apr-16 00:59N 51°19' E 003°14'0 0.0
2018-Apr-16 00:29N 51°19' E 003°14'0 0.0
2018-Apr-15 23:59N 51°19' E 003°14'0 0.0
2018-Apr-15 23:29N 51°19' E 003°14'0 0.0
2018-Apr-15 22:59N 51°19' E 003°14'0 0.0
2018-Apr-15 22:29N 51°19' E 003°14'0 0.0
2018-Apr-15 21:56N 51°19' E 003°14'0 0.0
2018-Apr-15 21:29N 51°19' E 003°14'0 0.0
2018-Apr-15 20:59N 51°19' E 003°14'0 0.0
2018-Apr-15 20:29N 51°19' E 003°14'0 0.0
2018-Apr-15 19:59N 51°19' E 003°14'0 0.0
2018-Apr-15 19:29N 51°19' E 003°14'0 0.0
2018-Apr-15 18:59N 51°19' E 003°14'0 0.0
2018-Apr-15 18:29N 51°19' E 003°14'0 0.0
2018-Apr-15 17:59N 51°19' E 003°14'0 0.0
2018-Apr-15 17:29N 51°19' E 003°14'0 0.0
2018-Apr-15 16:59N 51°19' E 003°14'0 0.0
2018-Apr-15 16:29N 51°19' E 003°14'0 0.0
2018-Apr-15 15:59N 51°19' E 003°14'0 0.0
2018-Apr-15 15:30N 51°19' E 003°14'0 0.0
2018-Apr-15 14:59N 51°19' E 003°14'0 0.0
2018-Apr-15 14:30N 51°19' E 003°14'0 0.0
2018-Apr-15 13:59N 51°19' E 003°14'0 0.0
2018-Apr-15 13:29N 51°19' E 003°14'0 0.0
2018-Apr-15 12:59N 51°19' E 003°14'0 0.0
2018-Apr-15 12:29N 51°19' E 003°14'0 0.0
2018-Apr-15 11:59N 51°19' E 003°14'0 0.0
2018-Apr-15 11:29N 51°19' E 003°14'0 0.0
2018-Apr-15 10:59N 51°19' E 003°14'0 0.0
2018-Apr-15 10:29N 51°19' E 003°14'0 0.0
2018-Apr-15 09:59N 51°19' E 003°14'0 0.0
2018-Apr-15 09:29N 51°19' E 003°14'0 0.0
2018-Apr-15 08:59N 51°19' E 003°14'0 0.0
2018-Apr-15 08:29N 51°19' E 003°14'0 0.0
2018-Apr-15 07:59N 51°19' E 003°14'0 0.0
2018-Apr-15 07:29N 51°19' E 003°14'0 0.0
2018-Apr-15 06:59N 51°19' E 003°14'0 0.0
2018-Apr-15 06:29N 51°19' E 003°14'0 0.0
2018-Apr-15 05:58N 51°19' E 003°14'0 0.0
2018-Apr-15 05:28N 51°19' E 003°14'0 0.0
2018-Apr-15 04:58N 51°19' E 003°14'0 0.0
2018-Apr-15 04:28N 51°19' E 003°14'0 0.0
2018-Apr-15 03:58N 51°19' E 003°14'0 0.0
2018-Apr-15 03:28N 51°19' E 003°14'0 0.0
2018-Apr-15 02:58N 51°19' E 003°14'0 0.0
2018-Apr-15 02:28N 51°19' E 003°14'0 0.0
2018-Apr-15 01:58N 51°19' E 003°14'0 0.0
2018-Apr-15 01:28N 51°19' E 003°14'1 2.1
2018-Apr-15 01:00N 51°20' E 003°13'0 0.5
2018-Apr-15 00:30N 51°20' E 003°13'1 1.2
2018-Apr-15 00:00N 51°21' E 003°12'1 2.2
2018-Apr-14 23:30N 51°22' E 003°12'611.5
2018-Apr-14 23:00N 51°24' E 003°04'713.9
2018-Apr-14 22:30N 51°22' E 002°53'712.5
2018-Apr-14 21:58N 51°22' E 002°42'4 8.8
2018-Apr-14 21:28N 51°22' E 002°35'3 5.5
2018-Apr-14 21:00N 51°23' E 002°31'4 7.8
2018-Apr-14 20:30N 51°27' E 002°33'4 7.0
2018-Apr-14 20:00N 51°30' E 002°35'4 7.2
2018-Apr-14 19:30N 51°33' E 002°37'612.8
2018-Apr-14 19:00N 51°40' E 002°39'816.8
2018-Apr-14 18:31N 51°48' E 002°39'1116.8
2018-Apr-14 17:52N 51°58' E 002°45'617.0
2018-Apr-14 17:30N 52°03' E 002°51'916.8
2018-Apr-14 16:59N 52°10' E 002°58'816.5
2018-Apr-14 16:29N 52°17' E 003°06'816.1
2018-Apr-14 16:00N 52°24' E 003°14'815.7
2018-Apr-14 15:30N 52°30' E 003°21'815.5
2018-Apr-14 15:00N 52°36' E 003°29'815.3
2018-Apr-14 14:30N 52°42' E 003°37'815.1
2018-Apr-14 13:59N 52°48' E 003°45'714.9
2018-Apr-14 13:30N 52°53' E 003°53'812.6
2018-Apr-14 12:54N 52°59' E 004°02'3 7.0
2018-Apr-14 12:30N 53°00' E 004°06'610.2
2018-Apr-14 11:57N 53°04' E 004°13'716.0
2018-Apr-14 11:30N 53°09' E 004°22'816.2
2018-Apr-14 11:00N 53°16' E 004°29'816.5
2018-Apr-14 10:30N 53°23' E 004°34'815.0
2018-Apr-14 10:00N 53°29' E 004°43'815.8
2018-Apr-14 09:30N 53°32' E 004°55'815.2
2018-Apr-14 09:00N 53°35' E 005°07'814.9
2018-Apr-14 08:30N 53°37' E 005°19'714.2
2018-Apr-14 08:00N 53°40' E 005°30'7214.5
2018-Apr-14 03:04N 53°59' E 007°27'216.0
2018-Apr-14 02:58N 53°59' E 007°30'813.2
2018-Apr-14 02:24N 53°56' E 007°42'512.8
2018-Apr-14 02:00N 53°53' E 007°49'816.3
2018-Apr-14 01:30N 53°51' E 008°02'715.0
2018-Apr-14 01:00N 53°46' E 008°11'816.5
2018-Apr-14 00:30N 53°41' E 008°22'714.5
2018-Apr-14 00:00N 53°36' E 008°31'2 3.9
2018-Apr-13 23:30N 53°34' E 008°33'0 0.5
2018-Apr-13 23:00N 53°34' E 008°33'0 0.7
2018-Apr-13 22:30N 53°35' E 008°33'0 0.0
2018-Apr-13 21:59N 53°35' E 008°33'0 0.0
2018-Apr-13 21:29N 53°35' E 008°33'0 0.0
2018-Apr-13 20:59N 53°35' E 008°33'0 0.0
2018-Apr-13 20:29N 53°35' E 008°33'0 0.0
2018-Apr-13 19:59N 53°35' E 008°33'0 0.0
2018-Apr-13 19:29N 53°35' E 008°33'0 0.0
2018-Apr-13 18:59N 53°35' E 008°33'0 0.0
2018-Apr-13 18:29N 53°35' E 008°33'0 0.0
2018-Apr-13 17:59N 53°35' E 008°33'0 0.0
2018-Apr-13 17:29N 53°35' E 008°33'0 0.0
2018-Apr-13 16:59N 53°35' E 008°33'0 0.0
2018-Apr-13 16:29N 53°35' E 008°33'0 0.0
2018-Apr-13 15:59N 53°35' E 008°33'0 0.0
2018-Apr-13 15:29N 53°35' E 008°33'0 0.0
2018-Apr-13 14:59N 53°35' E 008°33'0 0.0
2018-Apr-13 14:29N 53°35' E 008°33'0 0.0
2018-Apr-13 13:59N 53°35' E 008°33'0 0.0
2018-Apr-13 13:29N 53°35' E 008°33'0 0.0
2018-Apr-13 12:59N 53°35' E 008°33'0 0.0
2018-Apr-13 12:29N 53°35' E 008°33'0 0.0
2018-Apr-13 11:59N 53°35' E 008°33'0 0.0
2018-Apr-13 11:28N 53°35' E 008°33'0 0.0
2018-Apr-13 10:58N 53°35' E 008°33'0 0.0
2018-Apr-13 10:28N 53°35' E 008°33'0 0.0
2018-Apr-13 09:58N 53°35' E 008°33'0 0.0
2018-Apr-13 09:28N 53°35' E 008°33'0 0.0
2018-Apr-13 08:58N 53°35' E 008°33'0 0.0
2018-Apr-13 08:28N 53°35' E 008°33'0 0.0
2018-Apr-13 07:58N 53°35' E 008°33'0 0.0
2018-Apr-13 07:28N 53°35' E 008°33'0 0.0
2018-Apr-13 06:58N 53°35' E 008°33'0 0.0
2018-Apr-13 06:28N 53°35' E 008°33'0 0.0
2018-Apr-13 05:58N 53°35' E 008°33'0 0.0
2018-Apr-13 05:25N 53°35' E 008°33'0 0.0
2018-Apr-13 04:58N 53°35' E 008°33'0 0.0
2018-Apr-13 04:28N 53°35' E 008°33'0 0.0
2018-Apr-13 03:58N 53°35' E 008°33'0 0.0
2018-Apr-13 03:28N 53°35' E 008°33'0 0.0
2018-Apr-13 02:58N 53°35' E 008°33'0 0.0
2018-Apr-13 02:28N 53°35' E 008°33'0 0.0
2018-Apr-13 01:58N 53°35' E 008°33'0 0.0
2018-Apr-13 01:28N 53°35' E 008°33'0 0.0
2018-Apr-13 01:00N 53°35' E 008°33'0 0.9
2018-Apr-13 00:30N 53°34' E 008°33'0 0.8
2018-Apr-13 00:00N 53°34' E 008°33'3 5.7
2018-Apr-12 23:30N 53°36' E 008°30'4 8.3
2018-Apr-12 23:00N 53°39' E 008°25'5 9.9
2018-Apr-12 22:30N 53°42' E 008°19'612.8
2018-Apr-12 22:00N 53°46' E 008°10'714.3
2018-Apr-12 21:30N 53°51' E 008°01'89 9.1
2018-Apr-12 11:48N 53°36' E 005°33'515.4
2018-Apr-12 11:30N 53°35' E 005°26'815.3
2018-Apr-12 11:01N 53°32' E 005°14'714.9
2018-Apr-12 10:31N 53°30' E 005°02'714.6
2018-Apr-12 10:01N 53°26' E 004°51'714.6
2018-Apr-12 09:31N 53°22' E 004°41'915.2
2018-Apr-12 08:55N 53°14' E 004°34'915.4
2018-Apr-12 08:20N 53°06' E 004°27'515.5
2018-Apr-12 08:00N 53°02' E 004°23'815.5
2018-Apr-12 07:30N 52°55' E 004°17'815.4
2018-Apr-12 07:01N 52°48' E 004°10'814.8
2018-Apr-12 06:30N 52°43' E 004°02'714.5
2018-Apr-12 06:00N 52°37' E 003°55'814.1
2018-Apr-12 05:28N 52°32' E 003°46'714.3
2018-Apr-12 05:00N 52°27' E 003°37'814.4
2018-Apr-12 04:28N 52°22' E 003°28'814.7
2018-Apr-12 03:57N 52°17' E 003°19'814.9
2018-Apr-12 03:27N 52°11' E 003°11'3416.0
2018-Apr-12 01:20N 51°46' E 002°35'717.7
2018-Apr-12 00:58N 51°40' E 002°29'817.7
2018-Apr-12 00:30N 51°33' E 002°26'816.9
2018-Apr-12 00:00N 51°27' E 002°15'714.5
2018-Apr-11 23:30N 51°21' E 002°10'816.4
2018-Apr-11 23:00N 51°13' E 002°04'918.3
2018-Apr-11 22:31N 51°09' E 001°51'918.9
2018-Apr-11 22:01N 51°03' E 001°39'1019.5
2018-Apr-11 21:30N 50°55' E 001°30'919.1
2018-Apr-11 21:00N 50°46' E 001°24'917.6
2018-Apr-11 20:30N 50°39' E 001°16'817.1
2018-Apr-11 20:00N 50°34' E 001°06'816.7
2018-Apr-11 19:30N 50°29' E 000°55'816.8
2018-Apr-11 19:00N 50°27' E 000°42'917.8
2018-Apr-11 18:30N 50°24' E 000°29'918.4
2018-Apr-11 18:00N 50°22' E 000°15'918.7
2018-Apr-11 17:30N 50°19' E 000°01'918.7
2018-Apr-11 17:00N 50°17' W 000°14'918.9
2018-Apr-11 16:31N 50°15' W 000°28'918.8
2018-Apr-11 16:00N 50°13' W 000°42'918.8
2018-Apr-11 15:30N 50°11' W 000°57'918.5
2018-Apr-11 15:00N 50°08' W 001°11'918.1
2018-Apr-11 14:30N 50°07' W 001°24'917.7
2018-Apr-11 14:00N 50°05' W 001°38'917.2
2018-Apr-11 13:30N 50°02' W 001°51'816.9
2018-Apr-11 13:01N 49°60' W 002°03'916.6
2018-Apr-11 12:26N 49°57' W 002°17'716.4
2018-Apr-11 12:00N 49°55' W 002°28'816.2
2018-Apr-11 11:30N 49°53' W 002°40'816.2
2018-Apr-11 11:01N 49°50' W 002°52'816.2
2018-Apr-11 10:30N 49°47' W 003°03'816.4
2018-Apr-11 10:00N 49°42' W 003°14'816.6
2018-Apr-11 09:30N 49°38' W 003°25'916.6
2018-Apr-11 08:58N 49°33' W 003°36'1216.8
2018-Apr-11 08:17N 49°27' W 003°51'6416.8
2018-Apr-11 04:28N 48°55' W 005°16'817.4
2018-Apr-11 04:00N 48°51' W 005°27'  
Track history (hours):
 
Tides and Currents Weather Stations Pressure Air Temp Water Temp Dewpoint Dewpoint Depression Visibility Wind Speed Wind Dir Waves Ship Positions

Don Carlos

Last reported at 2018-Apr-20 18:07 UTC. Time now 2018-Apr-22 08:47 UTC.
Position N 50°43' W 011°42'.

Length 228 m; draft 9.5 m.

Type: Cargo ship. MMSI: 566088000.

Date/timePositionNaut miles runAvg speedWind from/ knotsBaromVisibWave heightAir tempDewpointWater temp
2018-Apr-20 18:07N 50°43' W 011°42'216.8
2018-Apr-20 17:58N 50°44' W 011°38'816.8
2018-Apr-20 17:30N 50°46' W 011°26'1016.6
2018-Apr-20 16:54N 50°48' W 011°11'816.4
2018-Apr-20 16:26N 50°50' W 010°59'716.5
2018-Apr-20 15:59N 50°52' W 010°48'816.7
2018-Apr-20 15:30N 50°54' W 010°35'816.7
2018-Apr-20 15:00N 50°56' W 010°22'1213.2
2018-Apr-20 14:06N 50°58' W 010°04'2 6.6
2018-Apr-20 13:51N 50°59' W 010°01'6 9.5
2018-Apr-20 13:15N 50°60' W 009°52'517.2
2018-Apr-20 12:59N 51°01' W 009°45'817.3
2018-Apr-20 12:30N 51°04' W 009°33'917.5
2018-Apr-20 12:00N 51°06' W 009°20'917.4
2018-Apr-20 11:30N 51°08' W 009°06'917.5
2018-Apr-20 11:00N 51°10' W 008°53'917.2
2018-Apr-20 10:30N 51°12' W 008°39'917.2
2018-Apr-20 10:00N 51°15' W 008°26'816.8
2018-Apr-20 09:30N 51°16' W 008°13'816.6
2018-Apr-20 09:00N 51°16' W 007°60'714.8
2018-Apr-20 08:30N 51°16' W 007°48'714.7
2018-Apr-20 08:00N 51°17' W 007°36'714.6
2018-Apr-20 07:30N 51°17' W 007°24'714.5
2018-Apr-20 07:00N 51°18' W 007°13'714.4
2018-Apr-20 06:30N 51°18' W 007°01'714.3
2018-Apr-20 06:00N 51°17' W 006°50'714.5
2018-Apr-20 05:30N 51°17' W 006°38'714.7
2018-Apr-20 05:00N 51°17' W 006°27'714.8
2018-Apr-20 04:30N 51°17' W 006°15'714.9
2018-Apr-20 04:00N 51°18' W 006°03'714.8
2018-Apr-20 03:30N 51°18' W 005°51'714.9
2018-Apr-20 03:00N 51°18' W 005°39'815.1
2018-Apr-20 02:30N 51°18' W 005°27'715.3
2018-Apr-20 02:00N 51°18' W 005°15'815.8
2018-Apr-20 01:30N 51°18' W 005°02'816.6
2018-Apr-20 01:00N 51°19' W 004°49'916.9
2018-Apr-20 00:30N 51°19' W 004°35'917.9
2018-Apr-20 00:00N 51°20' W 004°21'918.6
2018-Apr-19 23:30N 51°20' W 004°06'918.8
2018-Apr-19 23:00N 51°20' W 003°51'918.7
2018-Apr-19 22:30N 51°20' W 003°36'917.7
2018-Apr-19 22:00N 51°21' W 003°22'611.3
2018-Apr-19 21:30N 51°21' W 003°13'611.2
2018-Apr-19 21:01N 51°23' W 003°05'713.7
2018-Apr-19 20:30N 51°28' W 002°56'713.1
2018-Apr-19 20:00N 51°30' W 002°46'2 3.6
2018-Apr-19 19:30N 51°30' W 002°44'0 0.4
2018-Apr-19 19:00N 51°30' W 002°43'0 0.6
2018-Apr-19 18:30N 51°30' W 002°43'0 0.0
2018-Apr-19 18:00N 51°30' W 002°43'0 0.0
2018-Apr-19 17:30N 51°30' W 002°43'0 0.0
2018-Apr-19 16:58N 51°30' W 002°43'0 0.0
2018-Apr-19 16:28N 51°30' W 002°43'0 0.0
2018-Apr-19 15:58N 51°30' W 002°43'0 0.0
2018-Apr-19 15:28N 51°30' W 002°43'0 0.0
2018-Apr-19 14:58N 51°30' W 002°43'0 0.0
2018-Apr-19 14:28N 51°30' W 002°43'0 0.0
2018-Apr-19 13:58N 51°30' W 002°43'0 0.0
2018-Apr-19 13:28N 51°30' W 002°43'0 0.0
2018-Apr-19 12:55N 51°30' W 002°43'0 0.0
2018-Apr-19 12:28N 51°30' W 002°43'0 0.0
2018-Apr-19 11:58N 51°30' W 002°43'0 0.0
2018-Apr-19 11:28N 51°30' W 002°43'0 0.0
2018-Apr-19 10:58N 51°30' W 002°43'0 0.0
2018-Apr-19 10:28N 51°30' W 002°43'0 0.0
2018-Apr-19 09:58N 51°30' W 002°43'0 0.0
2018-Apr-19 09:25N 51°30' W 002°43'0 0.0
2018-Apr-19 08:58N 51°30' W 002°43'0 0.0
2018-Apr-19 08:28N 51°30' W 002°43'0 0.0
2018-Apr-19 07:58N 51°30' W 002°43'0 0.0
2018-Apr-19 07:28N 51°30' W 002°43'0 0.0
2018-Apr-19 06:58N 51°30' W 002°43'0 0.0
2018-Apr-19 06:28N 51°30' W 002°43'0 0.0
2018-Apr-19 05:58N 51°30' W 002°43'0 0.0
2018-Apr-19 05:28N 51°30' W 002°43'0 0.0
2018-Apr-19 04:58N 51°30' W 002°43'0 0.0
2018-Apr-19 04:28N 51°30' W 002°43'0 0.0
2018-Apr-19 03:58N 51°30' W 002°43'0 0.0
2018-Apr-19 03:28N 51°30' W 002°43'0 0.0
2018-Apr-19 02:58N 51°30' W 002°43'0 0.0
2018-Apr-19 02:28N 51°30' W 002°43'0 0.0
2018-Apr-19 01:58N 51°30' W 002°43'0 0.0
2018-Apr-19 01:28N 51°30' W 002°43'0 0.0
2018-Apr-19 00:55N 51°30' W 002°43'0 0.0
2018-Apr-19 00:28N 51°30' W 002°43'0 0.0
2018-Apr-18 23:58N 51°30' W 002°43'0 0.0
2018-Apr-18 23:28N 51°30' W 002°43'0 0.0
2018-Apr-18 22:58N 51°30' W 002°43'0 0.0
2018-Apr-18 22:30N 51°30' W 002°43'0 0.8
2018-Apr-18 22:00N 51°30' W 002°43'0 0.9
2018-Apr-18 21:30N 51°30' W 002°44'4 7.6
2018-Apr-18 21:00N 51°29' W 002°50'815.2
2018-Apr-18 20:30N 51°26' W 003°01'916.4
2018-Apr-18 19:58N 51°21' W 003°13'3614.5
2018-Apr-18 17:30N 51°16' W 004°10'918.1
2018-Apr-18 16:59N 51°12' W 004°23'917.7
2018-Apr-18 16:30N 51°07' W 004°34'917.4
2018-Apr-18 16:00N 51°01' W 004°44'816.6
2018-Apr-18 15:30N 50°55' W 004°54'917.3
2018-Apr-18 15:00N 50°49' W 005°03'917.4
2018-Apr-18 14:30N 50°43' W 005°14'917.0
2018-Apr-18 14:00N 50°38' W 005°23'816.7
2018-Apr-18 13:30N 50°32' W 005°33'816.1
2018-Apr-18 13:00N 50°27' W 005°43'815.9
2018-Apr-18 12:30N 50°21' W 005°52'815.7
2018-Apr-18 12:00N 50°14' W 005°55'1216.1
2018-Apr-18 11:17N 50°02' W 005°55'4713.9
2018-Apr-18 07:57N 49°50' W 004°45'713.4
2018-Apr-18 07:25N 49°52' W 004°35'613.6
2018-Apr-18 07:00N 49°54' W 004°27'813.0
2018-Apr-18 06:26N 49°57' W 004°16'613.6
2018-Apr-18 06:00N 49°59' W 004°07'713.9
2018-Apr-18 05:30N 50°00' W 003°57'714.4
2018-Apr-18 05:00N 50°03' W 003°46'815.2
2018-Apr-18 04:30N 50°06' W 003°35'816.6
2018-Apr-18 04:00N 50°08' W 003°23'917.1
2018-Apr-18 03:30N 50°11' W 003°10'917.9
2018-Apr-18 03:00N 50°13' W 002°57'918.4
2018-Apr-18 02:30N 50°16' W 002°43'918.5
2018-Apr-18 02:00N 50°18' W 002°29'1018.4
2018-Apr-18 01:27N 50°20' W 002°13'817.9
2018-Apr-18 01:00N 50°21' W 002°01'917.1
2018-Apr-18 00:30N 50°22' W 001°47'816.1
2018-Apr-18 00:00N 50°24' W 001°35'815.2
2018-Apr-17 23:31N 50°25' W 001°24'713.8
2018-Apr-17 23:00N 50°27' W 001°13'612.5
2018-Apr-17 22:30N 50°30' W 001°04'612.1
2018-Apr-17 22:00N 50°35' W 000°60'612.5
2018-Apr-17 21:30N 50°42' W 000°58'611.3
2018-Apr-17 21:00N 50°44' W 001°05'816.2
2018-Apr-17 20:30N 50°47' W 001°18'4 8.7
2018-Apr-17 20:00N 50°51' W 001°20'3 6.5
2018-Apr-17 19:30N 50°53' W 001°24'0 0.0
2018-Apr-17 19:00N 50°53' W 001°24'0 0.0
2018-Apr-17 18:29N 50°53' W 001°24'0 0.0
2018-Apr-17 17:59N 50°53' W 001°24'0 0.0
2018-Apr-17 17:28N 50°53' W 001°24'0 0.0
2018-Apr-17 16:58N 50°53' W 001°24'0 0.0
2018-Apr-17 16:28N 50°53' W 001°24'0 0.0
2018-Apr-17 15:58N 50°53' W 001°24'0 0.0
2018-Apr-17 15:28N 50°53' W 001°24'0 0.0
2018-Apr-17 14:58N 50°53' W 001°24'0 0.0
2018-Apr-17 14:28N 50°53' W 001°24'0 0.0
2018-Apr-17 13:58N 50°53' W 001°24'0 0.0
2018-Apr-17 13:28N 50°53' W 001°24'0 0.0
2018-Apr-17 12:58N 50°53' W 001°24'0 0.0
2018-Apr-17 12:28N 50°53' W 001°24'0 0.0
2018-Apr-17 11:58N 50°53' W 001°24'0 0.0
2018-Apr-17 11:28N 50°53' W 001°24'0 0.0
2018-Apr-17 10:58N 50°53' W 001°24'0 0.0
2018-Apr-17 10:28N 50°53' W 001°24'0 0.0
2018-Apr-17 09:58N 50°53' W 001°24'0 0.0
2018-Apr-17 09:28N 50°53' W 001°24'0 0.0
2018-Apr-17 09:00N 50°53' W 001°24'1 1.2
2018-Apr-17 08:30N 50°53' W 001°23'4 8.7
2018-Apr-17 08:00N 50°49' W 001°18'4 8.1
2018-Apr-17 07:30N 50°46' W 001°15'713.7
2018-Apr-17 07:01N 50°44' W 001°04'612.7
2018-Apr-17 06:30N 50°41' W 000°56'5 9.4
2018-Apr-17 06:00N 50°38' W 000°50'510.5
2018-Apr-17 05:30N 50°36' W 000°43'611.1
2018-Apr-17 05:00N 50°35' W 000°34'612.1
2018-Apr-17 04:31N 50°34' W 000°25'714.2
2018-Apr-17 04:00N 50°33' W 000°14'816.8
2018-Apr-17 03:30N 50°32' W 000°01'917.5
2018-Apr-17 03:00N 50°34' E 000°13'917.6
2018-Apr-17 02:30N 50°36' E 000°26'816.9
2018-Apr-17 02:00N 50°39' E 000°39'816.5
2018-Apr-17 01:30N 50°43' E 000°50'815.9
2018-Apr-17 01:00N 50°48' E 001°00'815.4
2018-Apr-17 00:30N 50°53' E 001°09'815.0
2018-Apr-17 00:00N 50°59' E 001°17'714.6
2018-Apr-16 23:30N 51°04' E 001°25'714.7
2018-Apr-16 23:01N 51°08' E 001°35'815.0
2018-Apr-16 22:30N 51°13' E 001°44'816.1
2018-Apr-16 22:00N 51°19' E 001°52'815.8
2018-Apr-16 21:31N 51°25' E 002°01'815.7
2018-Apr-16 21:00N 51°22' E 002°13'816.0
2018-Apr-16 20:30N 51°22' E 002°26'714.9
2018-Apr-16 20:00N 51°22' E 002°38'713.0
2018-Apr-16 19:30N 51°22' E 002°48'816.9
2018-Apr-16 19:00N 51°24' E 003°01'714.7
2018-Apr-16 18:30N 51°21' E 003°12'1 2.9
2018-Apr-16 18:00N 51°20' E 003°13'0 0.0
2018-Apr-16 17:30N 51°20' E 003°13'1 1.2
2018-Apr-16 17:00N 51°19' E 003°13'1 1.4
2018-Apr-16 16:30N 51°19' E 003°14'0 0.0
2018-Apr-16 16:00N 51°19' E 003°14'0 0.0
2018-Apr-16 15:30N 51°19' E 003°14'0 0.0
2018-Apr-16 15:00N 51°19' E 003°14'0 0.0
2018-Apr-16 14:30N 51°19' E 003°14'0 0.0
2018-Apr-16 14:00N 51°19' E 003°14'0 0.0
2018-Apr-16 13:30N 51°19' E 003°14'0 0.0
2018-Apr-16 13:00N 51°19' E 003°14'0 0.0
2018-Apr-16 12:29N 51°19' E 003°14'0 0.0
2018-Apr-16 11:59N 51°19' E 003°14'0 0.0
2018-Apr-16 11:29N 51°19' E 003°14'0 0.0
2018-Apr-16 10:59N 51°19' E 003°14'0 0.0
2018-Apr-16 10:29N 51°19' E 003°14'0 0.0
2018-Apr-16 09:59N 51°19' E 003°14'0 0.0
2018-Apr-16 09:29N 51°19' E 003°14'0 0.0
2018-Apr-16 08:59N 51°19' E 003°14'0 0.0
2018-Apr-16 08:29N 51°19' E 003°14'0 0.0
2018-Apr-16 07:59N 51°19' E 003°14'0 0.0
2018-Apr-16 07:29N 51°19' E 003°14'0 0.0
2018-Apr-16 06:59N 51°19' E 003°14'0 0.0
2018-Apr-16 06:29N 51°19' E 003°14'0 0.0
2018-Apr-16 05:59N 51°19' E 003°14'0 0.0
2018-Apr-16 05:29N 51°19' E 003°14'0 0.0
2018-Apr-16 04:59N 51°19' E 003°14'0 0.0
2018-Apr-16 04:29N 51°19' E 003°14'0 0.0
2018-Apr-16 03:59N 51°19' E 003°14'0 0.0
2018-Apr-16 03:29N 51°19' E 003°14'0 0.0
2018-Apr-16 02:59N 51°19' E 003°14'0 0.0
2018-Apr-16 02:29N 51°19' E 003°14'0 0.0
2018-Apr-16 01:59N 51°19' E 003°14'0 0.0
2018-Apr-16 01:29N 51°19' E 003°14'0 0.0
2018-Apr-16 00:59N 51°19' E 003°14'0 0.0
2018-Apr-16 00:29N 51°19' E 003°14'0 0.0
2018-Apr-15 23:59N 51°19' E 003°14'0 0.0
2018-Apr-15 23:29N 51°19' E 003°14'0 0.0
2018-Apr-15 22:59N 51°19' E 003°14'0 0.0
2018-Apr-15 22:29N 51°19' E 003°14'0 0.0
2018-Apr-15 21:56N 51°19' E 003°14'0 0.0
2018-Apr-15 21:29N 51°19' E 003°14'0 0.0
2018-Apr-15 20:59N 51°19' E 003°14'0 0.0
2018-Apr-15 20:29N 51°19' E 003°14'0 0.0
2018-Apr-15 19:59N 51°19' E 003°14'0 0.0
2018-Apr-15 19:29N 51°19' E 003°14'0 0.0
2018-Apr-15 18:59N 51°19' E 003°14'0 0.0
2018-Apr-15 18:29N 51°19' E 003°14'0 0.0
2018-Apr-15 17:59N 51°19' E 003°14'0 0.0
2018-Apr-15 17:29N 51°19' E 003°14'0 0.0
2018-Apr-15 16:59N 51°19' E 003°14'0 0.0
2018-Apr-15 16:29N 51°19' E 003°14'0 0.0
2018-Apr-15 15:59N 51°19' E 003°14'0 0.0
2018-Apr-15 15:30N 51°19' E 003°14'0 0.0
2018-Apr-15 14:59N 51°19' E 003°14'0 0.0
2018-Apr-15 14:30N 51°19' E 003°14'0 0.0
2018-Apr-15 13:59N 51°19' E 003°14'0 0.0
2018-Apr-15 13:29N 51°19' E 003°14'0 0.0
2018-Apr-15 12:59N 51°19' E 003°14'0 0.0
2018-Apr-15 12:29N 51°19' E 003°14'0 0.0
2018-Apr-15 11:59N 51°19' E 003°14'0 0.0
2018-Apr-15 11:29N 51°19' E 003°14'0 0.0
2018-Apr-15 10:59N 51°19' E 003°14'0 0.0
2018-Apr-15 10:29N 51°19' E 003°14'0 0.0
2018-Apr-15 09:59N 51°19' E 003°14'0 0.0
2018-Apr-15 09:29N 51°19' E 003°14'0 0.0
2018-Apr-15 08:59N 51°19' E 003°14'0 0.0
2018-Apr-15 08:29N 51°19' E 003°14'0 0.0
2018-Apr-15 07:59N 51°19' E 003°14'0 0.0
2018-Apr-15 07:29N 51°19' E 003°14'0 0.0
2018-Apr-15 06:59N 51°19' E 003°14'0 0.0
2018-Apr-15 06:29N 51°19' E 003°14'0 0.0
2018-Apr-15 05:58N 51°19' E 003°14'0 0.0
2018-Apr-15 05:28N 51°19' E 003°14'0 0.0
2018-Apr-15 04:58N 51°19' E 003°14'0 0.0
2018-Apr-15 04:28N 51°19' E 003°14'0 0.0
2018-Apr-15 03:58N 51°19' E 003°14'0 0.0
2018-Apr-15 03:28N 51°19' E 003°14'0 0.0
2018-Apr-15 02:58N 51°19' E 003°14'0 0.0
2018-Apr-15 02:28N 51°19' E 003°14'0 0.0
2018-Apr-15 01:58N 51°19' E 003°14'0 0.0
2018-Apr-15 01:28N 51°19' E 003°14'1 2.1
2018-Apr-15 01:00N 51°20' E 003°13'0 0.5
2018-Apr-15 00:30N 51°20' E 003°13'1 1.2
2018-Apr-15 00:00N 51°21' E 003°12'1 2.2
2018-Apr-14 23:30N 51°22' E 003°12'611.5
2018-Apr-14 23:00N 51°24' E 003°04'713.9
2018-Apr-14 22:30N 51°22' E 002°53'712.5
2018-Apr-14 21:58N 51°22' E 002°42'4 8.8
2018-Apr-14 21:28N 51°22' E 002°35'3 5.5
2018-Apr-14 21:00N 51°23' E 002°31'4 7.8
2018-Apr-14 20:30N 51°27' E 002°33'4 7.0
2018-Apr-14 20:00N 51°30' E 002°35'4 7.2
2018-Apr-14 19:30N 51°33' E 002°37'612.8
2018-Apr-14 19:00N 51°40' E 002°39'816.8
2018-Apr-14 18:31N 51°48' E 002°39'1116.8
2018-Apr-14 17:52N 51°58' E 002°45'617.0
2018-Apr-14 17:30N 52°03' E 002°51'916.8
2018-Apr-14 16:59N 52°10' E 002°58'816.5
2018-Apr-14 16:29N 52°17' E 003°06'816.1
2018-Apr-14 16:00N 52°24' E 003°14'815.7
2018-Apr-14 15:30N 52°30' E 003°21'815.5
2018-Apr-14 15:00N 52°36' E 003°29'815.3
2018-Apr-14 14:30N 52°42' E 003°37'815.1
2018-Apr-14 13:59N 52°48' E 003°45'714.9
2018-Apr-14 13:30N 52°53' E 003°53'812.6
2018-Apr-14 12:54N 52°59' E 004°02'3 7.0
2018-Apr-14 12:30N 53°00' E 004°06'610.2
2018-Apr-14 11:57N 53°04' E 004°13'716.0
2018-Apr-14 11:30N 53°09' E 004°22'816.2
2018-Apr-14 11:00N 53°16' E 004°29'816.5
2018-Apr-14 10:30N 53°23' E 004°34'815.0
2018-Apr-14 10:00N 53°29' E 004°43'815.8
2018-Apr-14 09:30N 53°32' E 004°55'815.2
2018-Apr-14 09:00N 53°35' E 005°07'814.9
2018-Apr-14 08:30N 53°37' E 005°19'714.2
2018-Apr-14 08:00N 53°40' E 005°30'7214.5
2018-Apr-14 03:04N 53°59' E 007°27'216.0
2018-Apr-14 02:58N 53°59' E 007°30'813.2
2018-Apr-14 02:24N 53°56' E 007°42'512.8
2018-Apr-14 02:00N 53°53' E 007°49'816.3
2018-Apr-14 01:30N 53°51' E 008°02'715.0
2018-Apr-14 01:00N 53°46' E 008°11'816.5
2018-Apr-14 00:30N 53°41' E 008°22'714.5
2018-Apr-14 00:00N 53°36' E 008°31'2 3.9
2018-Apr-13 23:30N 53°34' E 008°33'0 0.5
2018-Apr-13 23:00N 53°34' E 008°33'0 0.7
2018-Apr-13 22:30N 53°35' E 008°33'0 0.0
2018-Apr-13 21:59N 53°35' E 008°33'0 0.0
2018-Apr-13 21:29N 53°35' E 008°33'0 0.0
2018-Apr-13 20:59N 53°35' E 008°33'0 0.0
2018-Apr-13 20:29N 53°35' E 008°33'0 0.0
2018-Apr-13 19:59N 53°35' E 008°33'0 0.0
2018-Apr-13 19:29N 53°35' E 008°33'0 0.0
2018-Apr-13 18:59N 53°35' E 008°33'0 0.0
2018-Apr-13 18:29N 53°35' E 008°33'0 0.0
2018-Apr-13 17:59N 53°35' E 008°33'0 0.0
2018-Apr-13 17:29N 53°35' E 008°33'0 0.0
2018-Apr-13 16:59N 53°35' E 008°33'0 0.0
2018-Apr-13 16:29N 53°35' E 008°33'0 0.0
2018-Apr-13 15:59N 53°35' E 008°33'0 0.0
2018-Apr-13 15:29N 53°35' E 008°33'0 0.0
2018-Apr-13 14:59N 53°35' E 008°33'0 0.0
2018-Apr-13 14:29N 53°35' E 008°33'0 0.0
2018-Apr-13 13:59N 53°35' E 008°33'0 0.0
2018-Apr-13 13:29N 53°35' E 008°33'0 0.0
2018-Apr-13 12:59N 53°35' E 008°33'0 0.0
2018-Apr-13 12:29N 53°35' E 008°33'0 0.0
2018-Apr-13 11:59N 53°35' E 008°33'0 0.0
2018-Apr-13 11:28N 53°35' E 008°33'0 0.0
2018-Apr-13 10:58N 53°35' E 008°33'0 0.0
2018-Apr-13 10:28N 53°35' E 008°33'0 0.0
2018-Apr-13 09:58N 53°35' E 008°33'0 0.0
2018-Apr-13 09:28N 53°35' E 008°33'0 0.0
2018-Apr-13 08:58N 53°35' E 008°33'0 0.0
2018-Apr-13 08:28N 53°35' E 008°33'0 0.0
2018-Apr-13 07:58N 53°35' E 008°33'0 0.0
2018-Apr-13 07:28N 53°35' E 008°33'0 0.0
2018-Apr-13 06:58N 53°35' E 008°33'0 0.0
2018-Apr-13 06:28N 53°35' E 008°33'0 0.0
2018-Apr-13 05:58N 53°35' E 008°33'0 0.0
2018-Apr-13 05:25N 53°35' E 008°33'0 0.0
2018-Apr-13 04:58N 53°35' E 008°33'0 0.0
2018-Apr-13 04:28N 53°35' E 008°33'0 0.0
2018-Apr-13 03:58N 53°35' E 008°33'0 0.0
2018-Apr-13 03:28N 53°35' E 008°33'0 0.0
2018-Apr-13 02:58N 53°35' E 008°33'0 0.0
2018-Apr-13 02:28N 53°35' E 008°33'0 0.0
2018-Apr-13 01:58N 53°35' E 008°33'0 0.0
2018-Apr-13 01:28N 53°35' E 008°33'0 0.0
2018-Apr-13 01:00N 53°35' E 008°33'0 0.9
2018-Apr-13 00:30N 53°34' E 008°33'0 0.8
2018-Apr-13 00:00N 53°34' E 008°33'3 5.7
2018-Apr-12 23:30N 53°36' E 008°30'4 8.3
2018-Apr-12 23:00N 53°39' E 008°25'5 9.9
2018-Apr-12 22:30N 53°42' E 008°19'612.8
2018-Apr-12 22:00N 53°46' E 008°10'714.3
2018-Apr-12 21:30N 53°51' E 008°01'89 9.1
2018-Apr-12 11:48N 53°36' E 005°33'515.4
2018-Apr-12 11:30N 53°35' E 005°26'815.3
2018-Apr-12 11:01N 53°32' E 005°14'714.9
2018-Apr-12 10:31N 53°30' E 005°02'714.6
2018-Apr-12 10:01N 53°26' E 004°51'714.6
2018-Apr-12 09:31N 53°22' E 004°41'915.2
2018-Apr-12 08:55N 53°14' E 004°34'915.4
2018-Apr-12 08:20N 53°06' E 004°27'515.5
2018-Apr-12 08:00N 53°02' E 004°23'815.5
2018-Apr-12 07:30N 52°55' E 004°17'815.4
2018-Apr-12 07:01N 52°48' E 004°10'814.8
2018-Apr-12 06:30N 52°43' E 004°02'714.5
2018-Apr-12 06:00N 52°37' E 003°55'814.1
2018-Apr-12 05:28N 52°32' E 003°46'714.3
2018-Apr-12 05:00N 52°27' E 003°37'814.4
2018-Apr-12 04:28N 52°22' E 003°28'814.7
2018-Apr-12 03:57N 52°17' E 003°19'814.9
2018-Apr-12 03:27N 52°11' E 003°11'3416.0
2018-Apr-12 01:20N 51°46' E 002°35'717.7
2018-Apr-12 00:58N 51°40' E 002°29'817.7
2018-Apr-12 00:30N 51°33' E 002°26'816.9
2018-Apr-12 00:00N 51°27' E 002°15'714.5
2018-Apr-11 23:30N 51°21' E 002°10'816.4
2018-Apr-11 23:00N 51°13' E 002°04'918.3
2018-Apr-11 22:31N 51°09' E 001°51'918.9
2018-Apr-11 22:01N 51°03' E 001°39'1019.5
2018-Apr-11 21:30N 50°55' E 001°30'919.1
2018-Apr-11 21:00N 50°46' E 001°24'917.6
2018-Apr-11 20:30N 50°39' E 001°16'817.1
2018-Apr-11 20:00N 50°34' E 001°06'816.7
2018-Apr-11 19:30N 50°29' E 000°55'816.8
2018-Apr-11 19:00N 50°27' E 000°42'917.8
2018-Apr-11 18:30N 50°24' E 000°29'918.4
2018-Apr-11 18:00N 50°22' E 000°15'918.7
2018-Apr-11 17:30N 50°19' E 000°01'918.7
2018-Apr-11 17:00N 50°17' W 000°14'918.9
2018-Apr-11 16:31N 50°15' W 000°28'918.8
2018-Apr-11 16:00N 50°13' W 000°42'918.8
2018-Apr-11 15:30N 50°11' W 000°57'918.5
2018-Apr-11 15:00N 50°08' W 001°11'918.1
2018-Apr-11 14:30N 50°07' W 001°24'917.7
2018-Apr-11 14:00N 50°05' W 001°38'917.2
2018-Apr-11 13:30N 50°02' W 001°51'816.9
2018-Apr-11 13:01N 49°60' W 002°03'916.6
2018-Apr-11 12:26N 49°57' W 002°17'716.4
2018-Apr-11 12:00N 49°55' W 002°28'816.2
2018-Apr-11 11:30N 49°53' W 002°40'816.2
2018-Apr-11 11:01N 49°50' W 002°52'816.2
2018-Apr-11 10:30N 49°47' W 003°03'816.4
2018-Apr-11 10:00N 49°42' W 003°14'816.6
2018-Apr-11 09:30N 49°38' W 003°25'916.6
2018-Apr-11 08:58N 49°33' W 003°36'1216.8
2018-Apr-11 08:17N 49°27' W 003°51'6416.8
2018-Apr-11 04:28N 48°55' W 005°16'817.4
2018-Apr-11 04:00N 48°51' W 005°27'  

Dump ship's entire track history